Time;durP1;ratioP1;P1;durP2;ratioP2;P2;SDS_P1;SDS_P2;PMS_P1;PMS_P2;Temp;Humidity;BMP_temperature;BMP_pressure;BME280_temperature;BME280_humidity;BME280_pressure;Samples;Min_cycle;Max_cycle;Signal;HPM_P1;HPM_P2
2023/06/12 00:00:36;;;;;;;10.50;6.30;;;23.60;61.80;;;;;;4946350;29;20036;-71
2023/06/12 00:03:02;;;;;;;12.38;6.57;;;23.50;61.80;;;;;;4954228;28;20092;-72
2023/06/12 00:05:28;;;;;;;8.45;6.30;;;23.40;61.90;;;;;;4947562;28;20459;-72
2023/06/12 00:07:56;;;;;;;10.48;6.47;;;23.40;61.90;;;;;;4951980;28;20027;-72
2023/06/12 00:10:22;;;;;;;10.38;6.53;;;23.40;61.90;;;;;;4954529;28;20025;-72
2023/06/12 00:12:48;;;;;;;8.35;6.03;;;23.40;62.00;;;;;;4953472;28;20062;-72
2023/06/12 00:15:13;;;;;;;9.27;6.40;;;23.30;62.00;;;;;;4954465;28;20027;-72
2023/06/12 00:17:40;;;;;;;8.48;6.55;;;23.30;62.10;;;;;;4947330;28;20062;-72
2023/06/12 00:20:06;;;;;;;8.82;6.30;;;23.20;62.10;;;;;;4942566;29;20103;-72
2023/06/12 00:22:32;;;;;;;16.13;6.22;;;23.20;62.30;;;;;;4944931;28;20028;-72
2023/06/12 00:24:57;;;;;;;8.38;6.50;;;23.10;62.50;;;;;;4952519;29;20398;-71
2023/06/12 00:27:23;;;;;;;9.85;6.38;;;23.10;62.50;;;;;;4952137;28;20115;-71
2023/06/12 00:29:49;;;;;;;9.20;6.63;;;23.10;62.50;;;;;;4953614;28;20348;-72
2023/06/12 00:32:15;;;;;;;8.65;6.28;;;23.10;62.50;;;;;;4953592;28;20024;-72
2023/06/12 00:34:40;;;;;;;8.20;5.57;;;23.00;63.40;;;;;;4953905;28;20130;-72
2023/06/12 00:37:07;;;;;;;11.02;6.53;;;23.00;62.70;;;;;;4948896;29;20024;-72
2023/06/12 00:39:33;;;;;;;11.63;6.43;;;23.00;62.70;;;;;;4948859;28;20040;-72
2023/06/12 00:41:58;;;;;;;12.55;6.32;;;22.90;62.60;;;;;;4953985;28;20046;-71
2023/06/12 00:44:24;;;;;;;10.25;6.20;;;22.90;62.70;;;;;;4953111;28;20071;-72
2023/06/12 00:46:50;;;;;;;11.30;6.25;;;22.90;62.90;;;;;;4945024;29;20030;-72
2023/06/12 00:49:16;;;;;;;8.90;5.93;;;22.90;63.10;;;;;;4954250;28;20023;-72
2023/06/12 00:51:42;;;;;;;10.77;6.10;;;22.80;63.00;;;;;;4953883;28;20490;-72
2023/06/12 00:54:07;;;;;;;9.27;6.10;;;22.80;63.20;;;;;;4949580;28;20085;-72
2023/06/12 00:56:33;;;;;;;7.75;6.07;;;22.70;63.40;;;;;;4951588;28;20031;-72
2023/06/12 00:58:59;;;;;;;6.43;5.63;;;22.70;63.60;;;;;;4951399;28;20107;-72
2023/06/12 01:01:25;;;;;;;11.07;5.93;;;22.60;63.70;;;;;;4952225;28;20106;-72
2023/06/12 01:03:56;;;;;;;10.13;5.90;;;22.60;63.90;;;;;;4952589;28;20023;-72
2023/06/12 01:06:33;;;;;;;8.88;6.07;;;22.50;64.10;;;;;;4950901;29;20047;-71
2023/06/12 01:09:17;;;;;;;6.95;5.85;;;22.50;64.30;;;;;;4949243;28;20364;-71
2023/06/12 01:11:44;;;;;;;11.77;5.75;;;22.40;64.40;;;;;;4945327;28;20114;-71
2023/06/12 01:14:17;;;;;;;8.85;5.80;;;22.40;64.50;;;;;;4947394;28;20043;-72
2023/06/12 01:16:45;;;;;;;7.68;5.68;;;22.40;64.70;;;;;;4950816;28;20042;-72
2023/06/12 01:19:13;;;;;;;9.20;6.45;;;22.30;64.80;;;;;;4946645;28;20023;-72
2023/06/12 01:21:40;;;;;;;6.97;5.63;;;22.30;65.00;;;;;;4952262;28;20031;-72
2023/06/12 01:24:09;;;;;;;9.35;6.05;;;22.20;65.30;;;;;;4952272;28;20035;-72
2023/06/12 01:26:45;;;;;;;10.45;5.95;;;22.20;65.50;;;;;;4952251;28;20038;-72
2023/06/12 01:29:39;;;;;;;9.68;6.40;;;22.20;65.60;;;;;;4952410;28;20098;-72
2023/06/12 01:32:07;;;;;;;8.80;5.75;;;22.10;65.70;;;;;;4952153;28;20019;-72
2023/06/12 01:34:41;;;;;;;10.57;6.38;;;22.10;66.00;;;;;;4952502;28;20047;-72
2023/06/12 01:37:25;;;;;;;7.43;6.00;;;22.00;66.30;;;;;;4953139;28;20489;-72
2023/06/12 01:39:58;;;;;;;9.20;6.10;;;22.00;66.30;;;;;;4953510;28;20027;-72
2023/06/12 01:42:26;;;;;;;9.82;5.93;;;21.90;66.50;;;;;;4953785;28;20073;-72
2023/06/12 01:44:52;;;;;;;8.65;6.18;;;21.90;66.50;;;;;;4953899;28;20039;-72
2023/06/12 01:47:21;;;;;;;8.30;6.00;;;21.90;66.60;;;;;;4953332;29;20033;-71
2023/06/12 01:49:47;;;;;;;10.75;6.28;;;21.80;66.60;;;;;;4948212;29;20356;-71
2023/06/12 01:52:14;;;;;;;12.43;6.25;;;21.90;66.50;;;;;;4952153;28;20034;-72
2023/06/12 01:54:40;;;;;;;8.02;6.18;;;21.80;66.40;;;;;;4955538;28;20024;-72
2023/06/12 01:57:06;;;;;;;10.88;6.10;;;21.80;66.50;;;;;;4956158;28;20118;-73
2023/06/12 01:59:34;;;;;;;9.13;6.50;;;21.80;66.30;;;;;;4951051;28;20024;-72
2023/06/12 02:02:00;;;;;;;7.38;5.55;;;21.80;66.40;;;;;;4957120;28;20585;-72
2023/06/12 02:04:28;;;;;;;10.88;6.40;;;21.80;66.40;;;;;;4955717;28;20070;-71
2023/06/12 02:06:53;;;;;;;11.45;6.20;;;21.80;66.40;;;;;;4955812;28;20463;-72
2023/06/12 02:09:19;;;;;;;9.48;6.53;;;21.80;66.50;;;;;;4950248;28;20102;-72
2023/06/12 02:11:45;;;;;;;8.23;6.15;;;21.80;66.50;;;;;;4958796;28;20027;-72
2023/06/12 02:14:10;;;;;;;7.78;5.85;;;21.70;66.60;;;;;;4957938;29;20031;-72
2023/06/12 02:16:36;;;;;;;11.35;6.60;;;21.70;66.80;;;;;;4972679;28;20054;-72
2023/06/12 02:19:02;;;;;;;8.52;6.05;;;21.70;67.00;;;;;;4966822;28;20015;-72
2023/06/12 02:21:28;;;;;;;8.48;5.70;;;21.60;67.90;;;;;;4956853;28;20035;-71
2023/06/12 02:23:54;;;;;;;8.77;6.60;;;21.60;67.20;;;;;;4957117;28;20031;-72
2023/06/12 02:26:20;;;;;;;9.70;5.95;;;21.60;67.30;;;;;;4957301;28;20053;-72
2023/06/12 02:29:05;;;;;;;10.25;6.05;;;21.60;67.40;;;;;;4956917;28;20024;-72
2023/06/12 02:31:30;;;;;;;8.48;5.82;;;21.50;67.50;;;;;;4956824;28;20051;-71
2023/06/12 02:33:56;;;;;;;9.88;6.05;;;21.50;67.70;;;;;;4954354;28;20078;-72
2023/06/12 02:36:21;;;;;;;9.55;6.00;;;21.40;67.70;;;;;;4948746;29;20030;-71
2023/06/12 02:38:48;;;;;;;8.93;6.10;;;21.40;68.00;;;;;;4956608;28;20086;-72
2023/06/12 02:41:13;;;;;;;10.05;6.53;;;21.40;68.40;;;;;;4956279;28;20027;-72
2023/06/12 02:43:39;;;;;;;8.88;6.25;;;21.30;68.60;;;;;;4954582;28;20467;-72
2023/06/12 02:46:05;;;;;;;10.90;6.60;;;21.30;68.90;;;;;;4956420;28;20089;-72
2023/06/12 02:48:30;;;;;;;9.23;6.03;;;21.30;69.30;;;;;;4952922;29;20032;-72
2023/06/12 02:50:56;;;;;;;13.90;6.85;;;21.20;69.50;;;;;;4955189;29;20023;-72
2023/06/12 02:53:22;;;;;;;16.35;7.20;;;21.20;69.80;;;;;;4957041;28;20130;-72
2023/06/12 02:55:47;;;;;;;10.30;6.50;;;21.10;70.10;;;;;;4956302;28;20075;-72
2023/06/12 02:58:13;;;;;;;7.95;6.78;;;21.10;70.30;;;;;;4956915;28;20028;-71
2023/06/12 03:00:38;;;;;;;14.48;7.38;;;21.00;70.40;;;;;;4951375;29;20023;-71
2023/06/12 03:03:05;;;;;;;52.25;34.75;;;21.00;70.70;;;;;;4957127;29;20023;-72
2023/06/12 03:05:30;;;;;;;12.95;8.35;;;21.00;70.80;;;;;;4956567;28;20109;-73
2023/06/12 03:07:57;;;;;;;9.00;6.97;;;20.90;70.70;;;;;;4957700;28;20016;-72
2023/06/12 03:10:23;;;;;;;9.45;6.43;;;20.90;71.50;;;;;;4957450;28;20027;-73
2023/06/12 03:12:49;;;;;;;8.88;7.07;;;20.90;70.80;;;;;;4955405;28;20150;-72
2023/06/12 03:15:15;;;;;;;10.55;6.78;;;20.90;70.70;;;;;;4957531;28;20055;-72
2023/06/12 03:17:40;;;;;;;11.48;7.07;;;20.80;70.80;;;;;;4957291;28;20030;-72
2023/06/12 03:20:08;;;;;;;12.73;7.13;;;20.80;71.00;;;;;;4957370;28;20030;-73
2023/06/12 03:22:33;;;;;;;8.73;6.75;;;20.80;71.10;;;;;;4957542;28;20038;-72
2023/06/12 03:24:59;;;;;;;11.95;6.93;;;20.70;71.10;;;;;;4956649;28;20031;-72
2023/06/12 03:27:25;;;;;;;11.48;6.97;;;20.70;71.10;;;;;;4947765;28;20035;-72
2023/06/12 03:29:50;;;;;;;10.38;7.47;;;20.70;71.10;;;;;;4951337;28;20433;-72
2023/06/12 03:32:16;;;;;;;10.27;6.90;;;20.60;71.20;;;;;;4949377;28;20031;-72
2023/06/12 03:34:42;;;;;;;13.00;7.70;;;20.60;71.30;;;;;;4957068;28;20024;-72
2023/06/12 03:37:08;;;;;;;11.77;7.22;;;20.60;71.50;;;;;;4957015;28;20459;-72
2023/06/12 03:39:34;;;;;;;9.38;7.25;;;20.60;71.60;;;;;;4953101;28;20038;-72
2023/06/12 03:42:00;;;;;;;16.02;8.23;;;20.60;71.80;;;;;;4956874;28;20024;-74
2023/06/12 03:44:25;;;;;;;11.18;7.47;;;20.60;71.80;;;;;;4956945;28;20029;-72
2023/06/12 03:46:51;;;;;;;11.75;7.38;;;20.50;72.00;;;;;;4956436;28;20038;-71
2023/06/12 03:49:17;;;;;;;8.70;6.85;;;20.50;72.20;;;;;;4956844;28;20058;-71
2023/06/12 03:51:42;;;;;;;9.32;6.60;;;20.50;72.20;;;;;;4956929;28;20031;-72
2023/06/12 03:54:09;;;;;;;9.95;6.85;;;20.50;73.00;;;;;;4947487;28;20034;-72
2023/06/12 03:56:35;;;;;;;14.43;7.10;;;20.50;72.40;;;;;;4952862;28;20065;-72
2023/06/12 03:59:01;;;;;;;9.10;6.60;;;20.50;72.50;;;;;;4956865;28;20055;-72
2023/06/12 04:01:26;;;;;;;11.95;6.78;;;20.50;72.30;;;;;;4955013;28;20678;-72
2023/06/12 04:03:53;;;;;;;10.88;6.95;;;20.50;72.40;;;;;;4954992;28;20628;-72
2023/06/12 04:06:24;;;;;;;9.15;6.93;;;20.50;72.50;;;;;;4945361;29;20071;-71
2023/06/12 04:08:51;;;;;;;8.75;6.28;;;20.50;72.50;;;;;;4956019;28;20027;-72
2023/06/12 04:11:18;;;;;;;9.85;6.60;;;20.50;72.50;;;;;;4956496;28;20023;-72
2023/06/12 04:13:44;;;;;;;8.07;6.60;;;20.50;72.30;;;;;;4956870;28;20034;-72
2023/06/12 04:16:10;;;;;;;8.27;6.55;;;20.50;72.50;;;;;;4946854;28;20035;-72
2023/06/12 04:18:37;;;;;;;10.68;7.07;;;20.50;72.50;;;;;;4947335;29;20027;-72
2023/06/12 04:21:07;;;;;;;8.80;6.47;;;20.50;72.50;;;;;;4956198;28;20062;-72
2023/06/12 04:23:33;;;;;;;10.07;6.68;;;20.50;72.50;;;;;;4956196;28;20047;-72
2023/06/12 04:26:05;;;;;;;10.43;6.45;;;20.50;72.20;;;;;;4945630;28;20050;-71
2023/06/12 04:28:35;;;;;;;10.73;7.18;;;20.50;72.30;;;;;;4955535;29;20028;-71
2023/06/12 04:31:02;;;;;;;11.18;7.68;;;20.50;72.40;;;;;;4956393;28;20083;-71
2023/06/12 04:33:32;;;;;;;9.88;6.72;;;20.50;72.50;;;;;;4956092;28;20015;-71
2023/06/12 04:36:03;;;;;;;10.65;6.60;;;20.50;73.30;;;;;;4955845;28;20379;-71
2023/06/12 04:38:32;;;;;;;9.77;6.60;;;20.60;72.70;;;;;;4955317;28;20023;-71
2023/06/12 04:40:59;;;;;;;9.50;6.70;;;20.60;72.90;;;;;;4941663;28;20032;-71
2023/06/12 04:43:25;;;;;;;13.95;6.85;;;20.60;72.90;;;;;;4955088;29;20066;-71
2023/06/12 04:45:52;;;;;;;10.70;6.90;;;20.60;72.80;;;;;;4951050;28;20494;-70
2023/06/12 04:48:19;;;;;;;12.40;7.30;;;20.60;72.70;;;;;;4946584;28;20082;-71
2023/06/12 04:50:48;;;;;;;11.90;6.97;;;20.70;72.70;;;;;;4942574;29;20040;-70
2023/06/12 04:53:17;;;;;;;11.95;6.65;;;20.70;72.40;;;;;;4944648;28;20020;-71
2023/06/12 04:55:50;;;;;;;10.75;6.72;;;20.80;72.10;;;;;;4954100;29;20030;-70
2023/06/12 04:58:17;;;;;;;9.98;6.85;;;20.80;72.00;;;;;;4947248;29;20074;-70
2023/06/12 05:00:47;;;;;;;10.35;6.07;;;20.90;71.90;;;;;;4951337;28;20016;-70
2023/06/12 05:03:20;;;;;;;10.55;6.60;;;20.90;71.60;;;;;;4954409;28;20441;-71
2023/06/12 05:05:46;;;;;;;9.00;6.65;;;20.90;71.50;;;;;;4953773;29;20051;-71
2023/06/12 05:08:13;;;;;;;9.27;6.28;;;21.00;71.60;;;;;;4954691;28;20026;-71
2023/06/12 05:10:40;;;;;;;13.07;6.55;;;21.00;71.40;;;;;;4954394;28;20063;-71
2023/06/12 05:13:06;;;;;;;9.90;6.05;;;21.00;71.40;;;;;;4954278;28;20030;-71
2023/06/12 05:15:31;;;;;;;9.13;6.50;;;21.10;71.40;;;;;;4946347;29;20032;-71
2023/06/12 05:17:57;;;;;;;9.77;6.68;;;21.10;71.30;;;;;;4954180;28;20027;-71
2023/06/12 05:20:25;;;;;;;9.98;6.32;;;21.10;71.30;;;;;;4954712;28;20098;-72
2023/06/12 05:22:51;;;;;;;10.95;6.43;;;21.10;71.20;;;;;;4952518;28;20078;-72
2023/06/12 05:25:16;;;;;;;10.63;6.15;;;21.20;71.10;;;;;;4951371;28;20027;-72
2023/06/12 05:27:42;;;;;;;10.75;6.50;;;21.20;71.10;;;;;;4952053;28;20061;-71
2023/06/12 05:30:08;;;;;;;9.57;6.80;;;21.20;71.40;;;;;;4953449;28;20098;-71
2023/06/12 05:32:37;;;;;;;12.48;7.00;;;21.20;71.40;;;;;;4948842;28;20099;-72
2023/06/12 05:35:02;;;;;;;10.25;6.97;;;21.30;71.40;;;;;;4949676;29;20038;-71
2023/06/12 05:37:28;;;;;;;10.90;6.45;;;21.30;72.00;;;;;;4947354;28;20027;-71
2023/06/12 05:39:54;;;;;;;10.00;6.55;;;21.30;71.20;;;;;;4953984;28;20077;-71
2023/06/12 05:42:20;;;;;;;8.35;6.00;;;21.40;71.30;;;;;;4948812;29;20104;-71
2023/06/12 05:44:48;;;;;;;9.27;6.68;;;21.40;71.20;;;;;;4953695;28;20024;-71
2023/06/12 05:47:14;;;;;;;12.30;6.68;;;21.40;71.30;;;;;;4947905;28;20038;-71
2023/06/12 05:49:40;;;;;;;9.35;6.53;;;21.40;71.40;;;;;;4954020;28;20023;-71
2023/06/12 05:52:07;;;;;;;13.02;6.15;;;21.50;71.50;;;;;;4953667;28;20019;-71
2023/06/12 05:54:32;;;;;;;8.57;6.57;;;21.50;71.50;;;;;;4953344;28;20027;-70
2023/06/12 05:56:58;;;;;;;9.15;6.07;;;21.50;71.50;;;;;;4951982;28;21521;-69
2023/06/12 05:59:24;;;;;;;10.23;6.53;;;21.50;71.60;;;;;;4950787;29;20023;-70
2023/06/12 06:01:50;;;;;;;8.73;6.15;;;21.60;71.60;;;;;;4950422;29;20040;-70
2023/06/12 06:04:16;;;;;;;10.52;6.45;;;21.60;71.30;;;;;;4942999;28;20024;-70
2023/06/12 06:06:42;;;;;;;7.75;5.57;;;21.60;71.50;;;;;;4952783;29;20047;-70
2023/06/12 06:09:08;;;;;;;11.15;6.50;;;21.70;71.40;;;;;;4950708;28;20042;-69
2023/06/12 06:11:33;;;;;;;11.13;6.30;;;21.70;71.30;;;;;;4946113;28;20463;-70
2023/06/12 06:14:00;;;;;;;9.98;6.32;;;21.70;71.30;;;;;;4943361;29;20106;-70
2023/06/12 06:16:26;;;;;;;9.25;6.32;;;21.80;71.40;;;;;;4953696;28;20023;-70
2023/06/12 06:18:52;;;;;;;10.88;6.75;;;21.80;71.30;;;;;;4952783;28;20580;-71
2023/06/12 06:21:17;;;;;;;10.10;5.93;;;21.90;71.30;;;;;;4947324;28;20102;-71
2023/06/12 06:23:43;;;;;;;11.85;6.68;;;21.90;71.20;;;;;;4953525;28;20098;-71
2023/06/12 06:26:09;;;;;;;15.05;6.30;;;22.00;71.00;;;;;;4953193;28;20030;-71
2023/06/12 06:28:36;;;;;;;8.85;6.03;;;22.10;70.90;;;;;;4953627;28;20038;-71
2023/06/12 06:31:03;;;;;;;9.82;6.25;;;22.20;70.30;;;;;;4953583;28;20394;-71
2023/06/12 06:33:29;;;;;;;12.23;6.53;;;22.30;70.00;;;;;;4952101;28;20027;-72
2023/06/12 06:35:55;;;;;;;11.80;6.28;;;22.40;70.10;;;;;;4953022;28;20046;-72
2023/06/12 06:38:22;;;;;;;14.52;6.80;;;22.50;69.50;;;;;;4952509;28;20467;-72
2023/06/12 06:40:48;;;;;;;12.75;6.40;;;22.60;69.10;;;;;;4953692;28;20028;-72
2023/06/12 06:43:14;;;;;;;12.00;6.40;;;22.70;69.30;;;;;;4956185;28;20077;-72
2023/06/12 06:45:39;;;;;;;10.00;6.53;;;22.80;68.80;;;;;;4947731;29;20035;-72
2023/06/12 06:48:07;;;;;;;10.70;6.20;;;22.90;68.70;;;;;;4956113;28;20034;-72
2023/06/12 06:50:32;;;;;;;16.08;6.63;;;23.00;68.10;;;;;;4956475;28;20160;-72
2023/06/12 06:52:58;;;;;;;14.05;6.50;;;23.10;67.80;;;;;;4951378;28;20104;-72
2023/06/12 06:55:24;;;;;;;12.38;6.20;;;23.30;67.30;;;;;;4952390;29;20035;-72
2023/06/12 06:57:50;;;;;;;9.70;6.13;;;23.40;66.90;;;;;;4956191;28;20123;-72
2023/06/12 07:00:16;;;;;;;9.75;5.85;;;23.50;66.20;;;;;;4955744;28;20047;-72
2023/06/12 07:02:43;;;;;;;8.65;5.85;;;23.70;65.90;;;;;;4956226;28;20048;-72
2023/06/12 07:05:09;;;;;;;10.27;6.35;;;23.80;65.30;;;;;;4957513;28;20082;-72
2023/06/12 07:07:35;;;;;;;10.65;5.80;;;23.90;64.70;;;;;;4956986;28;20031;-72
2023/06/12 07:10:00;;;;;;;9.13;6.50;;;24.00;64.30;;;;;;4956509;28;20114;-72
2023/06/12 07:12:27;;;;;;;10.82;6.38;;;24.20;64.50;;;;;;4961034;28;20047;-71
2023/06/12 07:14:53;;;;;;;13.98;6.35;;;24.30;64.30;;;;;;4961447;28;20026;-71
2023/06/12 07:17:19;;;;;;;11.65;5.97;;;24.50;64.10;;;;;;4960267;28;20032;-72
2023/06/12 07:19:44;;;;;;;14.38;6.45;;;24.60;63.80;;;;;;4956359;28;20034;-72
2023/06/12 07:22:10;;;;;;;11.77;5.90;;;24.80;63.70;;;;;;4955023;28;20042;-72
2023/06/12 07:24:35;;;;;;;14.27;6.55;;;24.90;63.10;;;;;;4953358;28;20051;-72
2023/06/12 07:27:01;;;;;;;8.60;5.90;;;25.10;62.40;;;;;;4956321;28;20019;-71
2023/06/12 07:29:27;;;;;;;10.68;6.15;;;25.40;62.10;;;;;;4956311;28;20391;-70
2023/06/12 07:31:52;;;;;;;13.60;6.50;;;25.50;61.70;;;;;;4956520;28;20526;-71
2023/06/12 07:34:18;;;;;;;12.57;5.90;;;25.70;60.90;;;;;;4949450;28;20027;-71
2023/06/12 07:36:44;;;;;;;11.23;6.38;;;25.80;60.10;;;;;;4953568;28;20035;-72
2023/06/12 07:39:10;;;;;;;6.85;5.82;;;26.00;59.70;;;;;;4940780;29;20043;-72
2023/06/12 07:41:39;;;;;;;11.15;5.75;;;26.20;59.10;;;;;;4955607;28;20023;-72
2023/06/12 07:44:06;;;;;;;8.77;5.68;;;26.30;58.70;;;;;;4955502;28;20669;-72
2023/06/12 07:46:32;;;;;;;8.90;5.95;;;26.50;58.10;;;;;;4955777;28;20053;-71
2023/06/12 07:49:03;;;;;;;10.35;6.60;;;26.70;57.70;;;;;;4955707;28;20012;-71
2023/06/12 07:51:29;;;;;;;9.73;6.28;;;26.90;57.10;;;;;;4955482;28;20046;-71
2023/06/12 07:53:55;;;;;;;11.00;6.18;;;27.00;56.60;;;;;;4953441;28;20074;-71
2023/06/12 07:56:22;;;;;;;7.97;5.80;;;27.10;56.20;;;;;;4955703;28;20086;-71
2023/06/12 07:58:48;;;;;;;11.95;5.88;;;27.20;55.80;;;;;;4955453;28;20055;-72
2023/06/12 08:01:14;;;;;;;8.13;5.82;;;27.40;55.40;;;;;;4956143;28;20059;-71
2023/06/12 08:03:39;;;;;;;10.93;5.82;;;27.50;54.80;;;;;;4956130;28;20023;-71
2023/06/12 08:06:09;;;;;;;7.50;5.80;;;27.70;54.60;;;;;;4949597;28;20510;-71
2023/06/12 08:08:45;;;;;;;9.18;6.25;;;27.80;54.50;;;;;;4955365;28;20455;-72
2023/06/12 08:11:11;;;;;;;9.70;6.00;;;28.00;54.00;;;;;;4948886;29;20497;-72
2023/06/12 08:13:37;;;;;;;7.43;5.90;;;28.20;53.80;;;;;;4947709;29;20062;-72
2023/06/12 08:16:03;;;;;;;9.02;5.97;;;28.40;53.40;;;;;;4955382;28;20054;-72
2023/06/12 08:18:28;;;;;;;9.35;6.03;;;28.50;52.90;;;;;;4955380;28;20031;-72
2023/06/12 08:20:54;;;;;;;6.75;6.05;;;28.60;52.30;;;;;;4955570;28;20114;-72
2023/06/12 08:23:20;;;;;;;8.23;6.03;;;28.80;52.30;;;;;;4954437;28;20027;-72
2023/06/12 08:25:46;;;;;;;8.38;6.45;;;28.90;52.00;;;;;;4956249;28;20568;-71
2023/06/12 08:28:11;;;;;;;11.10;6.38;;;29.00;51.60;;;;;;4955796;28;20015;-71
2023/06/12 08:30:37;;;;;;;9.40;6.10;;;29.10;51.10;;;;;;4955329;28;20050;-71
2023/06/12 08:33:03;;;;;;;9.70;5.72;;;29.20;50.80;;;;;;4955501;28;20030;-72
2023/06/12 08:35:29;;;;;;;8.60;5.43;;;29.30;50.30;;;;;;4955453;28;20067;-72
2023/06/12 08:37:56;;;;;;;7.93;6.05;;;29.50;49.90;;;;;;4942817;29;20027;-72
2023/06/12 08:40:22;;;;;;;12.68;5.97;;;29.50;49.30;;;;;;4947600;28;20110;-72
2023/06/12 08:42:51;;;;;;;13.63;5.93;;;29.70;48.60;;;;;;4955250;28;20031;-71
2023/06/12 08:45:22;;;;;;;11.77;6.10;;;29.70;48.50;;;;;;4954328;28;20027;-72
2023/06/12 08:47:48;;;;;;;9.60;5.80;;;29.80;48.40;;;;;;4947348;28;20372;-72
2023/06/12 08:50:16;;;;;;;9.55;5.78;;;30.00;47.80;;;;;;4954811;28;20038;-72
2023/06/12 08:52:42;;;;;;;9.48;5.65;;;30.10;47.20;;;;;;4955339;28;20130;-72
2023/06/12 08:55:10;;;;;;;7.90;5.50;;;30.10;47.00;;;;;;4954897;28;20038;-72
2023/06/12 08:57:36;;;;;;;10.50;6.10;;;30.30;47.00;;;;;;4955290;28;20382;-72
2023/06/12 09:00:06;;;;;;;11.48;5.82;;;30.40;46.80;;;;;;4955123;28;20480;-71
2023/06/12 09:02:32;;;;;;;9.45;5.55;;;30.40;46.40;;;;;;4955391;28;20023;-71
2023/06/12 09:05:03;;;;;;;8.82;5.50;;;30.50;46.50;;;;;;4954215;28;20564;-71
2023/06/12 09:07:35;;;;;;;9.52;5.38;;;30.60;46.50;;;;;;4954757;28;20411;-71
2023/06/12 09:10:01;;;;;;;10.98;5.80;;;30.70;45.70;;;;;;4952598;28;20082;-72
2023/06/12 09:12:29;;;;;;;7.40;5.28;;;30.70;44.70;;;;;;4944118;28;20024;-72
2023/06/12 09:14:55;;;;;;;9.65;5.75;;;30.70;44.50;;;;;;4954920;28;20122;-72
2023/06/12 09:17:26;;;;;;;10.55;6.28;;;30.80;44.20;;;;;;4955531;28;20103;-72
2023/06/12 09:19:53;;;;;;;6.95;5.68;;;30.80;44.10;;;;;;4954158;28;20039;-72
2023/06/12 09:22:21;;;;;;;12.35;5.70;;;30.80;44.40;;;;;;4954702;28;20027;-71
2023/06/12 09:24:47;;;;;;;9.75;5.80;;;30.90;44.60;;;;;;4954375;28;20054;-71
2023/06/12 09:27:13;;;;;;;11.35;5.40;;;31.00;44.50;;;;;;4954334;28;20024;-72
2023/06/12 09:29:40;;;;;;;11.25;5.63;;;31.20;44.80;;;;;;4954036;28;20100;-71
2023/06/12 09:32:10;;;;;;;6.78;5.68;;;31.40;44.90;;;;;;4954020;28;20019;-71
2023/06/12 09:34:36;;;;;;;11.13;6.15;;;31.50;44.40;;;;;;4953942;28;20043;-71
2023/06/12 09:37:08;;;;;;;8.38;5.70;;;31.50;44.60;;;;;;4946333;28;20026;-72
2023/06/12 09:39:34;;;;;;;8.60;5.60;;;31.70;44.30;;;;;;4946994;29;20042;-72
2023/06/12 09:42:01;;;;;;;11.48;5.50;;;31.70;43.80;;;;;;4953542;28;20649;-72
2023/06/12 09:44:31;;;;;;;8.00;5.18;;;31.80;43.70;;;;;;4954350;28;20034;-72
2023/06/12 09:47:04;;;;;;;6.32;5.60;;;31.90;43.40;;;;;;4953752;28;20521;-72
2023/06/12 09:49:33;;;;;;;11.00;5.15;;;31.90;42.80;;;;;;4951833;28;20027;-72
2023/06/12 09:52:05;;;;;;;11.45;5.47;;;32.00;41.80;;;;;;4953749;28;20034;-72
2023/06/12 09:54:32;;;;;;;10.57;5.40;;;31.90;41.10;;;;;;4954018;28;20148;-72
2023/06/12 09:57:00;;;;;;;9.45;5.25;;;31.90;40.80;;;;;;4953571;28;20039;-72
2023/06/12 09:59:32;;;;;;;6.65;5.03;;;32.00;40.80;;;;;;4953201;28;20027;-72
2023/06/12 10:02:19;;;;;;;9.30;4.63;;;32.00;40.00;;;;;;4953535;28;20529;-72
2023/06/12 10:05:02;;;;;;;9.43;4.63;;;32.10;39.20;;;;;;4952941;28;20058;-73
2023/06/12 10:07:32;;;;;;;6.68;5.00;;;31.90;38.40;;;;;;4942458;28;20054;-72
2023/06/12 10:10:01;;;;;;;8.10;4.68;;;31.90;38.60;;;;;;4944079;29;20038;-72
2023/06/12 10:12:28;;;;;;;8.75;5.00;;;32.00;38.60;;;;;;4954097;28;20336;-71
2023/06/12 10:14:54;;;;;;;7.05;4.32;;;32.10;38.10;;;;;;4954904;28;20012;-72
2023/06/12 10:17:22;;;;;;;7.88;4.60;;;32.10;38.00;;;;;;4958114;28;20106;-72
2023/06/12 10:19:50;;;;;;;8.52;4.30;;;32.10;37.40;;;;;;4945531;28;20462;-71
2023/06/12 10:22:15;;;;;;;7.07;4.63;;;32.10;37.20;;;;;;4957431;28;20385;-72
2023/06/12 10:24:42;;;;;;;7.35;4.80;;;32.10;37.30;;;;;;4944756;28;20154;-72
2023/06/12 10:27:08;;;;;;;7.20;5.07;;;32.20;37.90;;;;;;4956987;29;20174;-72
2023/06/12 10:29:38;;;;;;;7.93;4.70;;;32.30;38.00;;;;;;4956936;28;20059;-72
2023/06/12 10:32:08;;;;;;;9.50;4.88;;;32.30;37.40;;;;;;4948362;29;20411;-72
2023/06/12 10:34:35;;;;;;;8.65;4.65;;;32.40;37.40;;;;;;4956976;28;20031;-72
2023/06/12 10:37:22;;;;;;;9.10;4.97;;;32.50;37.40;;;;;;4956797;28;20114;-72
2023/06/12 10:39:49;;;;;;;7.43;5.32;;;32.60;37.00;;;;;;4952689;29;20035;-72
2023/06/12 10:42:16;;;;;;;8.60;4.65;;;32.60;36.70;;;;;;4953708;29;20067;-72
2023/06/12 10:44:48;;;;;;;12.98;4.47;;;32.70;36.70;;;;;;4953821;28;20012;-72
2023/06/12 10:47:23;;;;;;;10.55;5.07;;;32.70;36.40;;;;;;4957818;29;20138;-72
2023/06/12 10:49:59;;;;;;;;;;;32.80;36.20;;;;;;4958958;28;20510;-72
2023/06/12 10:52:25;;;;;;;7.80;5.00;;;32.70;36.20;;;;;;4958550;28;20298;-74
2023/06/12 10:55:16;;;;;;;5.85;4.40;;;32.80;36.30;;;;;;4958741;28;20527;-74
2023/06/12 10:58:01;;;;;;;8.93;5.03;;;32.80;35.20;;;;;;4955718;29;20049;-74
2023/06/12 11:00:37;;;;;;;7.28;4.95;;;32.80;35.00;;;;;;4958877;28;20027;-74
2023/06/12 11:03:11;;;;;;;7.32;4.68;;;32.80;35.40;;;;;;4959588;28;20031;-74
2023/06/12 11:05:38;;;;;;;9.05;5.07;;;32.90;35.30;;;;;;4959003;28;20058;-74
2023/06/12 11:08:07;;;;;;;6.28;4.68;;;32.90;35.40;;;;;;4957694;28;20478;-74
2023/06/12 11:10:35;;;;;;;8.80;4.88;;;32.90;34.40;;;;;;4956286;28;20023;-73
2023/06/12 11:13:02;;;;;;;6.18;4.85;;;33.00;34.80;;;;;;4953436;28;20035;-74
2023/06/12 11:15:32;;;;;;;10.20;4.90;;;33.10;34.90;;;;;;4956809;28;20474;-73
2023/06/12 11:17:58;;;;;;;6.80;4.78;;;33.20;33.90;;;;;;4955108;28;20024;-74
2023/06/12 11:20:23;;;;;;;6.97;4.78;;;33.10;34.20;;;;;;4954435;28;20031;-74
2023/06/12 11:23:01;;;;;;;6.05;4.90;;;33.00;34.20;;;;;;4951864;28;20020;-75
2023/06/12 11:25:27;;;;;;;13.57;4.70;;;33.00;34.50;;;;;;4955880;28;20070;-74
2023/06/12 11:27:55;;;;;;;7.68;5.00;;;33.00;34.70;;;;;;4949616;28;20114;-74
2023/06/12 11:30:24;;;;;;;8.57;4.90;;;33.00;34.50;;;;;;4949329;29;20019;-73
2023/06/12 11:32:50;;;;;;;8.00;5.15;;;32.90;34.60;;;;;;4948402;29;20027;-74
2023/06/12 11:35:16;;;;;;;6.68;4.78;;;33.00;34.80;;;;;;4955647;28;20147;-74
2023/06/12 11:37:42;;;;;;;7.88;4.53;;;33.20;35.00;;;;;;4945618;28;20076;-74
2023/06/12 11:40:13;;;;;;;7.25;5.20;;;33.30;34.90;;;;;;4955312;28;20459;-74
2023/06/12 11:42:44;;;;;;;7.25;4.55;;;33.40;34.10;;;;;;4954651;29;20649;-74
2023/06/12 11:45:16;;;;;;;10.68;4.45;;;33.40;34.00;;;;;;4952430;29;20403;-73
2023/06/12 11:47:45;;;;;;;9.02;4.90;;;33.40;33.30;;;;;;4955946;28;20035;-73
2023/06/12 11:50:13;;;;;;;7.53;5.20;;;33.40;33.40;;;;;;4954920;28;20049;-74
2023/06/12 11:52:42;;;;;;;7.72;4.80;;;33.50;33.40;;;;;;4956887;28;20027;-74
2023/06/12 11:55:10;;;;;;;8.65;4.93;;;33.60;33.50;;;;;;4956923;28;20406;-74
2023/06/12 11:57:36;;;;;;;7.53;4.40;;;33.70;33.50;;;;;;4957008;28;20025;-74
2023/06/12 12:00:13;;;;;;;7.65;5.18;;;33.80;33.60;;;;;;4951338;28;20023;-74
2023/06/12 12:02:51;;;;;;;7.07;4.70;;;34.00;33.60;;;;;;4950415;29;20055;-74
2023/06/12 12:05:23;;;;;;;7.78;5.07;;;34.10;33.10;;;;;;4953202;28;20043;-74
2023/06/12 12:07:56;;;;;;;6.50;4.75;;;34.10;33.30;;;;;;4953009;29;20059;-74
2023/06/12 12:10:22;;;;;;;7.43;5.28;;;34.00;33.10;;;;;;4955869;28;20027;-74
2023/06/12 12:12:55;;;;;;;7.63;5.35;;;34.10;33.50;;;;;;4955786;28;20031;-74
2023/06/12 12:15:21;;;;;;;7.18;5.20;;;34.10;33.70;;;;;;4947705;28;20087;-74
2023/06/12 12:17:48;;;;;;;7.28;5.20;;;34.10;33.50;;;;;;4954231;29;20019;-74
2023/06/12 12:20:25;;;;;;;12.65;5.43;;;34.10;33.60;;;;;;4954144;28;20024;-75
2023/06/12 12:22:55;;;;;;;9.63;5.10;;;34.10;33.40;;;;;;4954114;28;20066;-73
2023/06/12 12:25:24;;;;;;;14.02;5.63;;;34.10;33.60;;;;;;4954953;28;20039;-73
2023/06/12 12:27:54;;;;;;;6.28;5.38;;;34.00;33.40;;;;;;4949423;29;20024;-74
2023/06/12 12:30:21;;;;;;;13.15;5.90;;;33.90;33.40;;;;;;4951770;28;20038;-73
2023/06/12 12:32:52;;;;;;;8.13;5.38;;;33.80;33.30;;;;;;4955068;28;20130;-74
2023/06/12 12:35:19;;;;;;;12.60;5.47;;;33.70;33.60;;;;;;4955214;28;20426;-74
2023/06/12 12:37:45;;;;;;;8.70;5.45;;;33.60;33.90;;;;;;4953370;28;20420;-75
2023/06/12 12:40:13;;;;;;;9.43;5.40;;;33.70;34.10;;;;;;4963752;28;20027;-74
2023/06/12 12:42:41;;;;;;;8.02;5.30;;;33.80;33.70;;;;;;4957084;29;20023;-74
2023/06/12 12:45:13;;;;;;;6.70;5.20;;;33.70;33.70;;;;;;4959318;28;20027;-74